Time;durP1;ratioP1;P1;durP2;ratioP2;P2;SDS_P1;SDS_P2;PMS_P1;PMS_P2;Temp;Humidity;BMP_temperature;BMP_pressure;BME280_temperature;BME280_humidity;BME280_pressure;Samples;Min_cycle;Max_cycle;Signal;HPM_P1;HPM_P2
2023/02/16 00:00:20;;;;;;;2.33;1.08;;;;;;;-1.12;65.32;100418.44;5109668;28;20047;-39
2023/02/16 00:02:47;;;;;;;3.22;1.17;;;;;;;-1.10;65.43;100413.38;5108253;28;20035;-39
2023/02/16 00:05:29;;;;;;;2.72;1.27;;;;;;;-1.09;65.12;100410.84;5109841;28;20487;-41
2023/02/16 00:07:55;;;;;;;2.28;1.20;;;;;;;-1.09;65.17;100413.38;5109461;28;20071;-41
2023/02/16 00:10:22;;;;;;;2.20;1.20;;;;;;;-1.09;65.13;100410.84;5109446;28;20137;-40
2023/02/16 00:15:32;;;;;;;1.88;1.40;;;;;;;-1.14;65.26;100417.50;5108012;28;20047;-40
2023/02/16 00:18:01;;;;;;;2.17;1.00;;;;;;;-1.13;65.10;100415.81;5107933;28;20031;-42
2023/02/16 00:20:29;;;;;;;0.95;0.70;;;;;;;-1.14;65.30;100409.88;5108854;28;20539;-41
2023/02/16 00:22:55;;;;;;;1.25;0.80;;;;;;;-1.07;65.43;100413.44;5110673;28;20046;-41
2023/02/16 00:25:21;;;;;;;2.72;1.23;;;;;;;-1.05;65.27;100412.66;5075390;28;20043;-40
2023/02/16 00:27:47;;;;;;;0.95;0.70;;;;;;;-1.24;65.36;100376.44;5108172;28;20392;-41
2023/02/16 00:30:15;;;;;;;2.03;1.20;;;;;;;-1.05;65.56;100402.44;5109152;28;20138;-41
2023/02/16 00:32:41;;;;;;;2.83;1.10;;;;;;;-1.06;65.51;100405.81;5106867;28;20529;-41
2023/02/16 00:35:15;;;;;;;3.15;1.42;;;;;;;-1.07;65.53;100404.09;5106347;28;20043;-40
2023/02/16 00:37:41;;;;;;;2.97;1.30;;;;;;;-1.11;65.66;100396.34;5109062;28;20065;-40
2023/02/16 00:40:08;;;;;;;5.43;1.60;;;;;;;-1.10;65.75;100403.16;5109460;28;20044;-40
2023/02/16 00:42:34;;;;;;;2.38;1.48;;;;;;;-1.07;65.68;100405.78;5107857;28;20061;-40
2023/02/16 00:45:00;;;;;;;2.15;1.38;;;;;;;-1.43;65.58;100342.84;5102444;28;20441;-39
2023/02/16 00:47:29;;;;;;;2.85;1.20;;;;;;;-1.14;65.50;100401.34;5090672;28;20047;-40
2023/02/16 00:49:57;;;;;;;1.95;1.00;;;;;;;-1.35;65.57;100368.53;5108743;28;20605;-40
2023/02/16 00:52:41;;;;;;;1.40;0.80;;;;;;;-1.16;65.33;100397.91;5109889;28;20089;-41
2023/02/16 00:55:10;;;;;;;2.33;0.90;;;;;;;-1.19;65.40;100400.38;5107515;28;20047;-41
2023/02/16 00:57:48;;;;;;;1.42;0.90;;;;;;;-1.21;65.48;100402.03;5108649;28;20134;-41
2023/02/16 01:00:25;;;;;;;3.53;0.90;;;;;;;-1.22;65.35;100401.19;5089631;28;20123;-41
2023/02/16 01:02:55;;;;;;;1.83;0.80;;;;;;;-1.24;65.08;100405.38;5104965;28;20091;-41
2023/02/16 01:05:21;;;;;;;;;;;;;;;-1.24;65.38;100399.41;5107437;28;20062;-40
2023/02/16 01:11:33;;;;;;;1.10;0.60;;;;;;;-1.29;65.11;100401.84;5107650;28;20403;-40
2023/02/16 01:13:28;;;;;;;2.50;0.90;;;;;;;-1.30;65.18;100398.41;5086152;28;20442;-40
2023/02/16 01:15:55;;;;;;;1.90;0.80;;;;;;;-1.34;65.14;100406.84;5091535;28;20054;-40
2023/02/16 01:18:21;;;;;;;1.17;0.73;;;;;;;-1.35;65.45;100401.69;5105435;28;20039;-40
2023/02/16 01:20:50;;;;;;;2.13;0.93;;;;;;;-1.52;65.57;100372.38;5089811;28;20074;-40
2023/02/16 01:23:16;;;;;;;1.42;0.80;;;;;;;-1.37;65.48;100405.91;5108307;28;20130;-40
2023/02/16 01:25:42;;;;;;;2.55;1.00;;;;;;;-1.56;65.51;100371.41;5091068;28;20047;-41
2023/02/16 01:28:18;;;;;;;1.73;1.10;;;;;;;-1.39;65.65;100400.75;5077913;28;20036;-41
2023/02/16 01:30:44;;;;;;;1.92;1.00;;;;;;;-1.40;65.28;100400.72;5088568;28;20039;-40
2023/02/16 01:33:10;;;;;;;2.65;0.90;;;;;;;-1.39;65.54;100399.88;5091050;28;20032;-41
2023/02/16 01:35:36;;;;;;;1.70;0.85;;;;;;;-1.48;65.70;100385.22;5089725;28;20036;-40
2023/02/16 01:38:02;;;;;;;2.35;1.30;;;;;;;-1.42;65.73;100399.81;5107167;28;20085;-40
2023/02/16 01:40:31;;;;;;;1.80;1.10;;;;;;;-1.39;65.86;100407.53;5075897;28;20066;-41
2023/02/16 01:43:05;;;;;;;1.95;1.20;;;;;;;-1.39;65.54;100407.53;5087232;28;20059;-40
2023/02/16 01:45:33;;;;;;;1.92;1.35;;;;;;;-1.39;66.04;100413.50;5090069;28;20055;-40
2023/02/16 01:48:05;;;;;;;3.22;1.10;;;;;;;-1.40;65.90;100411.78;5124141;27;20040;-41
2023/02/16 01:50:56;;;;;;;4.30;1.40;;;;;;;-1.41;66.09;100411.72;5090930;28;20065;-40
2023/02/16 01:53:30;;;;;;;2.88;1.05;;;;;;;-1.46;65.96;100401.41;5090932;28;20036;-41
2023/02/16 01:56:01;;;;;;;2.88;1.42;;;;;;;-1.45;66.21;100404.84;5081499;28;20050;-39
2023/02/16 01:58:44;;;;;;;2.08;1.17;;;;;;;-1.41;66.15;100415.16;5087204;28;20260;-41
2023/02/16 02:01:28;;;;;;;1.83;1.08;;;;;;;-1.42;66.35;100410.91;5074448;28;20123;-40
2023/02/16 02:06:39;;;;;;;5.70;1.85;;;;;;;-1.42;66.14;100404.94;5098299;28;20044;-40
2023/02/16 02:09:19;;;;;;;4.70;1.63;;;;;;;-1.43;66.14;100406.59;5087303;28;20141;-40
2023/02/16 02:11:53;;;;;;;6.22;2.20;;;;;;;-1.43;66.24;100405.75;5088623;28;20039;-40
2023/02/16 02:14:23;;;;;;;5.30;2.00;;;;;;;-1.44;66.35;100409.97;5061391;28;20042;-40
2023/02/16 02:16:59;;;;;;;;;;;;;;;-1.46;66.44;100413.28;5089875;28;20319;-41
2023/02/16 02:19:27;;;;;;;6.18;2.30;;;;;;;-1.51;66.43;100409.78;5084895;28;19947;-40
2023/02/16 02:25:37;;;;;;;4.63;2.00;;;;;;;-1.55;66.59;100413.06;5088486;28;20058;-41
2023/02/16 02:28:16;;;;;;;4.80;2.10;;;;;;;-1.79;66.55;100387.81;5087160;28;20044;-41
2023/02/16 02:30:55;;;;;;;7.32;1.85;;;;;;;-1.58;66.92;100413.00;5074772;28;20531;-40
2023/02/16 02:33:41;;;;;;;2.17;1.38;;;;;;;-1.60;66.93;100412.09;5107433;28;20039;-41
2023/02/16 02:36:16;;;;;;;2.65;1.20;;;;;;;-1.61;66.82;100420.56;5104234;28;20040;-41
2023/02/16 02:39:03;;;;;;;3.72;1.63;;;;;;;-1.60;66.86;100419.75;5106492;28;20472;-41
2023/02/16 02:42:06;;;;;;;3.00;1.30;;;;;;;-1.58;67.04;100410.47;5100742;28;20052;-41
2023/02/16 02:45:28;;;;;;;3.05;1.33;;;;;;;-1.56;67.11;100416.44;5089164;28;20051;-42
2023/02/16 02:47:54;;;;;;;2.40;1.20;;;;;;;-1.58;67.12;100421.53;5103053;28;20048;-40
2023/02/16 02:50:36;;;;;;;3.42;1.48;;;;;;;-1.54;67.01;100422.44;5085804;28;20051;-40
2023/02/16 02:53:04;;;;;;;1.95;1.30;;;;;;;-1.58;67.30;100423.22;5086801;28;20048;-41
2023/02/16 03:01:02;;;;;;;4.90;1.75;;;;;;;-1.64;67.61;100416.25;5106088;28;20052;-41
2023/02/16 03:03:36;;;;;;;4.28;1.90;;;;;;;-1.84;67.80;100390.25;5107116;28;20043;-40
2023/02/16 03:06:14;;;;;;;4.25;1.52;;;;;;;-1.84;67.64;100380.06;5088782;28;20517;-40
2023/02/16 03:08:43;;;;;;;4.63;1.80;;;;;;;-1.63;67.85;100422.22;5075528;28;20061;-41
2023/02/16 03:14:02;;;;;;;4.68;2.15;;;;;;;-1.63;67.58;100401.81;5085513;28;20516;-41
2023/02/16 03:16:35;;;;;;;4.72;1.60;;;;;;;-1.61;67.58;100402.72;5096413;28;20149;-41
2023/02/16 03:30:12;;;;;;;3.55;1.70;;;;;;;-1.59;68.10;100407.03;5108700;28;20047;-41
2023/02/16 03:32:38;;;;;;;3.17;1.30;;;;;;;-1.77;67.99;100366.63;5109373;28;20036;-41
2023/02/16 03:35:05;;;;;;;1.67;1.13;;;;;;;-1.55;68.01;100407.97;5093960;28;20039;-42
2023/02/16 03:37:32;;;;;;;3.65;1.30;;;;;;;-1.55;68.16;100397.78;5110040;28;20376;-40
2023/02/16 03:42:50;;;;;;;4.05;1.73;;;;;;;-1.50;68.35;100406.41;5106884;28;20056;-42
2023/02/16 03:45:17;;;;;;;2.92;1.60;;;;;;;-1.46;68.74;100398.00;5111317;28;20040;-41
2023/02/16 03:47:43;;;;;;;3.22;1.70;;;;;;;-1.48;68.89;100399.66;5109579;28;20054;-43
2023/02/16 03:50:09;;;;;;;2.75;1.60;;;;;;;-1.48;68.81;100404.75;5092018;28;20271;-41
2023/02/16 03:52:35;;;;;;;2.88;1.20;;;;;;;-1.49;69.09;100403.91;5111274;28;20035;-42
2023/02/16 03:55:01;;;;;;;2.08;1.30;;;;;;;-1.67;69.23;100375.38;5109759;28;20046;-42
2023/02/16 03:57:29;;;;;;;3.15;1.60;;;;;;;-1.50;69.29;100412.38;5111204;28;20050;-41
2023/02/16 03:59:55;;;;;;;6.63;2.88;;;;;;;-1.50;69.29;100407.28;5107243;28;20035;-41
2023/02/16 04:02:20;;;;;;;2.38;1.42;;;;;;;-1.67;69.34;100375.38;5089569;28;20050;-41
2023/02/16 04:04:46;;;;;;;1.70;1.15;;;;;;;-1.52;69.33;100403.84;5108055;28;20067;-41
2023/02/16 04:07:12;;;;;;;3.28;1.40;;;;;;;-1.52;69.22;100400.41;5110716;28;20602;-42
2023/02/16 04:09:38;;;;;;;4.47;1.85;;;;;;;-1.62;69.25;100386.53;5110747;28;20044;-42
2023/02/16 04:15:13;;;;;;;3.05;1.80;;;;;;;-1.56;69.00;100401.13;5047828;28;20091;-42
2023/02/16 04:17:39;;;;;;;4.20;2.00;;;;;;;-1.79;69.27;100363.19;5099934;28;20058;-42
2023/02/16 04:20:08;;;;;;;3.33;1.60;;;;;;;-1.57;69.31;100399.44;5107018;28;20503;-40
2023/02/16 04:22:34;;;;;;;3.00;1.33;;;;;;;-1.77;69.20;100373.41;5110365;28;20058;-42
2023/02/16 04:25:01;;;;;;;4.43;1.70;;;;;;;-1.61;69.09;100400.16;5109399;28;20036;-41
2023/02/16 04:27:27;;;;;;;4.82;1.92;;;;;;;-1.83;68.98;100366.47;5108460;28;20422;-43
2023/02/16 04:29:52;;;;;;;3.67;1.70;;;;;;;-1.65;69.03;100393.25;5110420;28;20066;-41
2023/02/16 04:32:18;;;;;;;2.88;1.63;;;;;;;-1.63;69.04;100395.03;5104294;28;20050;-42
2023/02/16 04:34:44;;;;;;;4.03;1.67;;;;;;;-1.61;68.97;100392.50;5103459;28;20039;-42
2023/02/16 04:37:10;;;;;;;3.90;1.83;;;;;;;-1.82;68.60;100357.16;5098890;28;20506;-39
2023/02/16 04:39:36;;;;;;;5.30;1.65;;;;;;;-1.63;68.65;100389.94;5098750;28;20570;-42
2023/02/16 04:42:02;;;;;;;3.65;1.85;;;;;;;-1.67;68.61;100382.19;5102124;28;20104;-43
2023/02/16 04:44:28;;;;;;;2.53;1.35;;;;;;;-1.66;68.67;100388.97;5106689;28;20051;-42
2023/02/16 04:46:54;;;;;;;3.28;1.65;;;;;;;-1.83;68.58;100361.38;5100144;28;20524;-43
2023/02/16 04:49:20;;;;;;;4.15;1.75;;;;;;;-1.88;68.53;100355.28;5076730;28;20043;-43
2023/02/16 04:51:47;;;;;;;4.28;1.50;;;;;;;-1.92;68.90;100371.34;5100463;28;20418;-43
2023/02/16 04:54:13;;;;;;;2.42;1.52;;;;;;;-1.75;68.79;100384.53;5098270;27;20047;-43
2023/02/16 04:56:38;;;;;;;3.10;1.55;;;;;;;-1.73;68.76;100391.38;5082094;28;20032;-44
2023/02/16 04:59:04;;;;;;;4.72;1.75;;;;;;;-1.76;68.44;100400.63;5098803;28;20065;-45
2023/02/16 05:01:30;;;;;;;3.45;1.67;;;;;;;-1.75;68.87;100395.59;5097582;28;20529;-43
2023/02/16 05:03:56;;;;;;;2.92;1.65;;;;;;;-1.78;68.39;100385.28;5088419;28;20506;-44
2023/02/16 05:06:22;;;;;;;3.58;1.70;;;;;;;-1.78;68.34;100392.09;5101303;28;20051;-45
2023/02/16 05:08:48;;;;;;;4.75;1.90;;;;;;;-1.77;68.39;100394.66;5098334;28;20085;-45
2023/02/16 05:16:44;;;;;;;2.92;1.45;;;;;;;-1.79;68.40;100398.88;5102146;28;20474;-44
2023/02/16 05:19:10;;;;;;;2.15;1.33;;;;;;;-1.78;68.30;100403.13;5094199;28;20040;-44
2023/02/16 05:21:36;;;;;;;3.22;1.52;;;;;;;-1.80;68.21;100403.94;5097458;28;20095;-42
2023/02/16 05:24:05;;;;;;;3.47;1.90;;;;;;;-1.78;68.79;100408.22;5089186;28;20142;-44
2023/02/16 05:26:34;;;;;;;5.45;2.42;;;;;;;-1.74;68.39;100404.09;5098152;28;20038;-43
2023/02/16 05:29:00;;;;;;;7.18;2.47;;;;;;;-1.72;68.57;100402.44;5107124;28;20036;-43
2023/02/16 05:31:27;;;;;;;5.55;1.70;;;;;;;-1.86;68.50;100380.81;5105033;28;20032;-45
2023/02/16 05:33:53;;;;;;;5.53;2.00;;;;;;;-1.68;68.31;100413.59;5073615;28;20062;-42
2023/02/16 05:36:19;;;;;;;4.55;2.05;;;;;;;-1.68;68.05;100405.94;5106277;28;20368;-44
2023/02/16 05:38:45;;;;;;;3.88;1.95;;;;;;;-1.67;68.38;100412.78;5108985;28;20055;-43
2023/02/16 05:41:22;;;;;;;5.32;1.95;;;;;;;-1.65;68.23;100398.38;5107549;28;20602;-44
2023/02/16 05:43:52;;;;;;;3.33;2.00;;;;;;;-1.62;68.26;100401.84;5083504;28;20067;-45
2023/02/16 05:46:19;;;;;;;3.90;2.17;;;;;;;-1.60;67.99;100399.34;5093205;28;20043;-43
2023/02/16 05:48:46;;;;;;;2.50;1.63;;;;;;;-1.83;68.01;100373.25;5091794;28;20461;-44
2023/02/16 05:51:12;;;;;;;4.03;1.80;;;;;;;-1.61;68.25;100398.47;5108834;28;20128;-43
2023/02/16 05:53:38;;;;;;;4.65;2.20;;;;;;;-1.61;67.99;100400.16;5107099;28;20552;-44
2023/02/16 05:56:05;;;;;;;4.55;1.80;;;;;;;-1.61;67.96;100400.16;5105527;28;20040;-43
2023/02/16 05:58:31;;;;;;;2.92;1.70;;;;;;;-1.96;67.84;100340.66;5107553;28;20076;-43
2023/02/16 06:00:57;;;;;;;5.30;1.52;;;;;;;-1.54;67.96;100405.47;5106224;28;20082;-44
2023/02/16 06:03:23;;;;;;;4.18;1.77;;;;;;;-1.52;67.39;100400.41;5107044;28;20510;-43
2023/02/16 06:05:54;;;;;;;4.20;1.70;;;;;;;-1.49;67.64;100403.91;5103990;28;20062;-43
2023/02/16 06:08:20;;;;;;;4.70;1.90;;;;;;;-1.47;67.51;100398.84;5086862;28;20074;-43
2023/02/16 06:10:48;;;;;;;6.35;1.73;;;;;;;-1.42;67.33;100398.16;5106391;28;20039;-42
2023/02/16 06:13:14;;;;;;;7.80;2.10;;;;;;;-1.40;67.11;100395.59;5107209;28;20085;-44
2023/02/16 06:15:40;;;;;;;4.78;1.83;;;;;;;-1.34;67.09;100398.31;5107481;28;20039;-43
2023/02/16 06:18:06;;;;;;;4.28;2.10;;;;;;;-1.28;67.08;100398.47;5106575;28;20359;-45
2023/02/16 06:20:32;;;;;;;6.38;2.50;;;;;;;-1.21;67.06;100391.84;5106024;28;20043;-45
2023/02/16 06:22:58;;;;;;;3.42;2.05;;;;;;;-1.48;66.92;100335.91;5106725;28;20130;-45
2023/02/16 06:25:24;;;;;;;9.45;2.60;;;;;;;-1.26;66.69;100368.78;5107207;28;20126;-45
2023/02/16 06:27:51;;;;;;;9.32;2.22;;;;;;;-1.00;66.50;100395.75;5106307;28;20040;-44
2023/02/16 06:30:18;;;;;;;6.20;2.70;;;;;;;-1.12;66.26;100357.19;5088587;28;20059;-45
2023/02/16 06:32:44;;;;;;;5.90;2.47;;;;;;;-0.92;66.30;100389.13;5108404;28;20062;-46
2023/02/16 06:35:10;;;;;;;5.78;2.22;;;;;;;-0.86;66.05;100388.41;5107473;28;20526;-43
2023/02/16 06:37:36;;;;;;;3.50;2.03;;;;;;;-1.00;65.75;100352.38;5105226;28;20043;-44
2023/02/16 06:40:02;;;;;;;5.75;2.22;;;;;;;-0.83;65.75;100383.38;5107014;28;20044;-43
2023/02/16 06:42:29;;;;;;;4.88;1.92;;;;;;;-1.02;65.52;100350.59;5106936;28;20707;-44
2023/02/16 06:44:55;;;;;;;4.38;1.55;;;;;;;-0.81;65.28;100384.28;5105109;28;20138;-45
2023/02/16 06:47:21;;;;;;;5.70;1.92;;;;;;;-0.81;65.23;100385.97;5096721;28;20039;-43
2023/02/16 06:49:47;;;;;;;3.25;1.90;;;;;;;-0.91;65.25;100360.22;5108110;28;20031;-43
2023/02/16 06:52:13;;;;;;;6.80;2.03;;;;;;;-0.71;65.12;100390.44;5096881;28;20050;-44
2023/02/16 06:54:38;;;;;;;3.83;1.40;;;;;;;-0.83;64.95;100359.53;5109000;28;20047;-44
2023/02/16 06:57:04;;;;;;;5.97;1.80;;;;;;;-0.59;64.59;100393.28;5101198;28;20118;-46
2023/02/16 06:59:30;;;;;;;3.80;1.52;;;;;;;-0.54;64.50;100395.09;5098443;28;20024;-42
2023/02/16 07:01:56;;;;;;;4.07;1.52;;;;;;;-0.70;64.69;100364.09;5107710;28;20527;-44
2023/02/16 07:04:22;;;;;;;5.10;2.17;;;;;;;-0.49;64.08;100390.94;5104587;28;20050;-50
2023/02/16 07:06:48;;;;;;;2.40;1.48;;;;;;;-0.47;64.16;100386.72;5103962;28;20047;-50
2023/02/16 07:09:14;;;;;;;3.85;1.70;;;;;;;-0.40;63.92;100391.94;5111359;28;20125;-47
2023/02/16 07:11:40;;;;;;;3.40;1.63;;;;;;;-0.34;63.95;100390.41;5103179;28;20039;-48
2023/02/16 07:14:05;;;;;;;3.80;1.80;;;;;;;-0.28;63.38;100379.44;5090209;28;20502;-52
2023/02/16 07:16:31;;;;;;;12.90;2.38;;;;;;;-0.37;63.38;100362.25;5105759;28;20043;-51
2023/02/16 07:18:57;;;;;;;3.97;1.60;;;;;;;-0.19;62.83;100388.16;5097324;28;20530;-48
2023/02/16 07:21:23;;;;;;;6.90;1.88;;;;;;;-0.13;62.91;100380.59;5109983;28;20555;-46
2023/02/16 07:23:49;;;;;;;3.28;1.60;;;;;;;-0.10;62.46;100377.22;5102593;28;20477;-49
2023/02/16 07:26:15;;;;;;;2.95;1.80;;;;;;;-0.11;62.54;100367.88;5101618;28;20039;-45
2023/02/16 07:28:41;;;;;;;7.13;1.50;;;;;;;0.03;62.02;100381.78;5109110;28;20077;-46
2023/02/16 07:31:12;;;;;;;3.40;1.70;;;;;;;0.10;62.34;100370.84;5104985;28;20048;-47
2023/02/16 07:33:39;;;;;;;2.47;1.70;;;;;;;0.19;62.02;100372.69;5102426;28;20189;-47
2023/02/16 07:36:06;;;;;;;2.25;1.58;;;;;;;-0.10;61.59;100316.78;5093129;28;20044;-48
2023/02/16 07:38:31;;;;;;;5.05;1.60;;;;;;;0.32;61.33;100378.03;5108025;28;20040;-47
2023/02/16 07:40:57;;;;;;;4.18;1.90;;;;;;;0.31;61.50;100371.22;5093649;28;20049;-48
2023/02/16 07:43:24;;;;;;;2.75;1.63;;;;;;;0.33;61.52;100379.78;5103352;28;20507;-52
2023/02/16 07:45:50;;;;;;;4.25;2.13;;;;;;;0.28;61.20;100370.28;5100982;28;20044;-46
2023/02/16 07:48:16;;;;;;;5.93;2.63;;;;;;;0.34;60.69;100380.63;5075699;28;20474;-49
2023/02/16 07:50:42;;;;;;;3.80;1.50;;;;;;;0.36;60.76;100376.41;5107211;28;20063;-47
2023/02/16 07:53:08;;;;;;;5.28;1.80;;;;;;;0.37;60.62;100373.88;5109826;28;20036;-44
2023/02/16 07:55:41;;;;;;;4.10;1.95;;;;;;;0.35;60.67;100375.56;5074044;28;20051;-43
2023/02/16 07:58:07;;;;;;;3.35;1.70;;;;;;;0.34;60.89;100375.53;5097675;28;20036;-42
2023/02/16 08:00:33;;;;;;;2.78;1.63;;;;;;;0.30;60.61;100368.63;5050445;28;20044;-42
2023/02/16 08:02:59;;;;;;;3.50;1.65;;;;;;;0.29;60.86;100367.78;5109420;28;20146;-42
2023/02/16 08:05:25;;;;;;;4.60;1.42;;;;;;;0.25;60.75;100363.44;5110590;28;20172;-42
2023/02/16 08:07:51;;;;;;;4.93;1.83;;;;;;;0.19;60.85;100365.88;5108023;28;20096;-44
2023/02/16 08:10:17;;;;;;;3.65;2.05;;;;;;;0.27;61.21;100364.31;5110247;28;20043;-41
2023/02/16 08:12:43;;;;;;;8.18;2.00;;;;;;;0.09;60.60;100342.69;5109521;28;20110;-44
2023/02/16 08:15:10;;;;;;;3.10;1.65;;;;;;;0.11;60.64;100343.56;5110754;28;20127;-43
2023/02/16 08:17:36;;;;;;;3.22;1.60;;;;;;;-0.02;60.91;100306.69;5088086;28;20039;-43
2023/02/16 08:20:04;;;;;;;8.82;2.70;;;;;;;0.37;60.43;100362.78;5105654;28;20535;-42
2023/02/16 08:22:30;;;;;;;6.30;2.30;;;;;;;0.40;60.41;100370.53;5107327;28;20123;-42
2023/02/16 08:24:58;;;;;;;6.75;1.77;;;;;;;0.42;60.33;100373.94;5092006;28;20472;-43
2023/02/16 08:27:25;;;;;;;2.72;1.35;;;;;;;0.42;60.59;100368.81;5109109;28;20139;-41
2023/02/16 08:29:52;;;;;;;3.08;1.48;;;;;;;0.22;60.30;100339.50;5110011;27;20046;-41
2023/02/16 08:32:18;;;;;;;2.10;1.33;;;;;;;0.38;60.44;100372.19;5110283;28;20087;-43
2023/02/16 08:34:45;;;;;;;2.92;1.48;;;;;;;0.38;60.29;100377.28;5108421;28;20167;-43
2023/02/16 08:37:12;;;;;;;5.03;1.63;;;;;;;0.38;59.88;100369.63;5091483;28;20038;-43
2023/02/16 08:39:38;;;;;;;3.35;1.80;;;;;;;0.40;59.84;100376.50;5110052;28;20044;-43
2023/02/16 08:42:04;;;;;;;2.08;1.50;;;;;;;0.33;60.07;100359.31;5110144;28;20478;-41
2023/02/16 08:44:30;;;;;;;2.95;1.90;;;;;;;0.43;60.30;100366.31;5108199;28;20134;-41
2023/02/16 08:46:59;;;;;;;2.75;1.60;;;;;;;0.54;60.17;100370.75;5110312;28;20502;-42
2023/02/16 08:49:26;;;;;;;3.03;1.65;;;;;;;0.37;59.70;100330.38;5109676;28;20039;-43
2023/02/16 08:51:55;;;;;;;4.32;1.85;;;;;;;0.22;59.70;100299.44;5091652;28;20536;-42
2023/02/16 08:54:27;;;;;;;5.77;2.07;;;;;;;0.62;59.83;100364.06;5109397;28;20054;-42
2023/02/16 08:56:54;;;;;;;5.80;2.35;;;;;;;0.64;59.64;100370.91;5108429;28;20418;-43
2023/02/16 08:59:21;;;;;;;3.92;2.28;;;;;;;0.50;59.41;100339.16;5109846;28;20035;-42
2023/02/16 09:01:47;;;;;;;3.47;1.95;;;;;;;0.51;59.15;100316.97;5108239;28;20050;-43
2023/02/16 09:04:14;;;;;;;5.90;1.90;;;;;;;0.93;59.17;100356.03;5108092;28;20043;-43
2023/02/16 09:06:41;;;;;;;3.83;2.20;;;;;;;1.02;58.58;100358.72;5107794;28;20108;-42
2023/02/16 09:09:08;;;;;;;5.35;1.80;;;;;;;1.08;58.50;100356.25;5109634;28;20147;-42
2023/02/16 09:11:34;;;;;;;6.75;2.45;;;;;;;1.17;58.33;100356.38;5091180;28;20048;-42
2023/02/16 09:14:01;;;;;;;10.45;2.92;;;;;;;1.33;57.71;100360.03;5107670;28;20055;-43
2023/02/16 09:16:28;;;;;;;4.65;2.17;;;;;;;1.36;57.78;100354.91;5108158;28;20475;-42
2023/02/16 09:18:56;;;;;;;5.32;1.90;;;;;;;1.30;57.71;100361.69;5109170;28;20030;-43
2023/02/16 09:21:27;;;;;;;5.57;2.30;;;;;;;1.23;57.62;100356.47;5107585;28;20092;-42
2023/02/16 09:23:55;;;;;;;6.07;2.10;;;;;;;1.01;57.79;100325.41;5107885;28;20043;-43
2023/02/16 09:26:22;;;;;;;5.18;2.72;;;;;;;1.18;57.62;100347.88;5108870;28;20067;-42
2023/02/16 09:28:49;;;;;;;4.30;2.00;;;;;;;1.16;57.54;100352.09;5109192;28;20070;-43
2023/02/16 09:31:24;;;;;;;3.72;2.17;;;;;;;1.12;57.36;100346.91;5107896;28;20073;-42
2023/02/16 09:33:51;;;;;;;4.90;2.03;;;;;;;1.07;57.20;100354.53;5109083;28;20040;-42
2023/02/16 09:36:17;;;;;;;4.63;1.98;;;;;;;1.20;56.54;100346.16;5103940;28;20047;-44
2023/02/16 09:38:43;;;;;;;3.25;1.63;;;;;;;1.32;56.79;100349.75;5085679;28;20043;-43
2023/02/16 09:41:34;;;;;;;3.42;1.88;;;;;;;1.30;56.59;100347.19;5109081;28;20043;-45
2023/02/16 09:44:32;;;;;;;5.28;2.15;;;;;;;1.28;56.18;100342.03;5104950;28;20074;-43
2023/02/16 09:47:00;;;;;;;3.90;2.17;;;;;;;1.18;56.19;100345.31;5102853;28;20039;-44
2023/02/16 09:49:31;;;;;;;4.63;1.90;;;;;;;1.04;56.68;100348.53;5107590;28;20031;-42
2023/02/16 09:52:05;;;;;;;4.20;2.30;;;;;;;0.79;56.54;100327.66;5106849;28;20035;-44
2023/02/16 09:54:45;;;;;;;6.25;2.25;;;;;;;0.66;56.88;100319.78;5095962;28;20047;-44
2023/02/16 09:57:35;;;;;;;4.50;2.05;;;;;;;0.77;56.88;100344.72;5081649;28;20054;-43
2023/02/16 10:00:24;;;;;;;3.53;1.80;;;;;;;0.66;56.56;100332.56;5104575;28;20570;-46
2023/02/16 10:02:56;;;;;;;;;;;;;;;0.75;56.27;100348.94;5103798;28;20047;-43
2023/02/16 10:05:28;;;;;;;2.67;1.33;;;;;;;0.61;55.77;100316.28;5094952;28;19916;-47
2023/02/16 10:08:17;;;;;;;2.28;1.50;;;;;;;0.87;55.56;100342.28;5104777;28;20039;-50
2023/02/16 10:10:55;;;;;;;3.00;1.93;;;;;;;0.93;55.67;100342.38;5103046;28;20075;-46
2023/02/16 10:13:42;;;;;;;3.80;1.58;;;;;;;0.95;55.65;100327.88;5104371;28;20036;-43
2023/02/16 10:16:16;;;;;;;5.95;1.83;;;;;;;0.99;55.20;100334.78;5120607;28;20062;-45
2023/02/16 10:18:44;;;;;;;4.35;1.55;;;;;;;1.03;55.44;100329.72;5087949;28;20448;-46
2023/02/16 10:21:18;;;;;;;2.67;1.63;;;;;;;0.94;55.15;100332.16;5087735;28;20522;-45
2023/02/16 10:23:48;;;;;;;3.95;1.88;;;;;;;0.92;55.27;100330.41;5080106;28;20074;-43
2023/02/16 10:26:23;;;;;;;3.83;1.98;;;;;;;0.91;55.42;100339.78;5106453;28;20043;-44
2023/02/16 10:28:53;;;;;;;3.70;1.88;;;;;;;0.92;55.49;100331.28;5106932;28;20184;-44
2023/02/16 10:31:22;;;;;;;3.92;1.98;;;;;;;0.94;55.41;100329.59;5108961;28;20442;-44
2023/02/16 10:33:57;;;;;;;3.37;1.83;;;;;;;1.01;55.15;100331.41;5110316;28;20047;-43
2023/02/16 10:36:42;;;;;;;3.67;1.83;;;;;;;1.02;54.99;100330.56;5110037;28;20052;-43
2023/02/16 10:39:29;;;;;;;5.38;1.98;;;;;;;1.02;54.51;100327.13;5087755;28;20028;-43
2023/02/16 10:42:02;;;;;;;6.63;2.83;;;;;;;0.77;54.89;100290.09;5079921;28;20078;-43
2023/02/16 10:44:40;;;;;;;5.35;2.08;;;;;;;0.96;54.86;100327.03;5081384;28;20056;-43
2023/02/16 10:47:33;;;;;;;5.65;1.77;;;;;;;0.93;54.91;100327.88;5098692;28;20085;-43
2023/02/16 10:49:59;;;;;;;3.90;1.67;;;;;;;0.92;54.47;100323.59;5089675;28;20040;-42
2023/02/16 10:52:28;;;;;;;5.07;2.00;;;;;;;0.73;54.64;100284.06;5083354;28;20040;-43
2023/02/16 10:54:55;;;;;;;4.68;1.88;;;;;;;1.03;54.40;100326.31;5106659;28;20043;-42
2023/02/16 10:57:30;;;;;;;3.03;2.00;;;;;;;0.98;54.19;100292.97;5101994;28;20490;-45
2023/02/16 10:59:57;;;;;;;5.93;2.40;;;;;;;1.25;54.02;100324.06;5093044;28;20127;-43
2023/02/16 11:02:27;;;;;;;4.60;2.00;;;;;;;1.38;54.18;100324.22;5110919;28;20533;-43
2023/02/16 11:04:57;;;;;;;3.38;1.55;;;;;;;1.58;53.47;100309.94;5103071;28;20040;-42
2023/02/16 11:07:24;;;;;;;;;;;;;;;1.76;53.29;100315.28;5105264;28;20046;-42
2023/02/16 11:09:52;;;;;;;3.88;1.90;;;;;;;1.72;52.99;100318.66;5097158;28;19920;-43
2023/02/16 11:12:35;;;;;;;3.25;1.77;;;;;;;1.62;53.02;100325.38;5102239;28;20759;-43
2023/02/16 11:15:05;;;;;;;2.33;1.40;;;;;;;1.58;52.56;100321.06;5100169;27;20094;-42
2023/02/16 11:17:32;;;;;;;2.97;1.70;;;;;;;1.51;52.34;100313.28;5101057;27;20075;-43
2023/02/16 11:20:04;;;;;;;3.28;1.98;;;;;;;1.40;51.99;100300.34;5096158;27;20043;-43
2023/02/16 11:22:33;;;;;;;3.10;2.10;;;;;;;1.46;52.03;100309.81;5097493;28;20039;-43
2023/02/16 11:25:20;;;;;;;7.20;2.20;;;;;;;1.53;51.90;100320.13;5101808;28;20515;-44
2023/02/16 11:27:54;;;;;;;12.45;4.18;;;;;;;1.39;51.64;100284.94;5100916;28;20357;-42
2023/02/16 11:30:31;;;;;;;4.25;2.28;;;;;;;1.58;50.92;100315.94;5096773;28;20105;-41
2023/02/16 11:33:01;;;;;;;4.93;2.33;;;;;;;1.58;51.01;100299.69;5099571;28;20467;-42
2023/02/16 11:35:30;;;;;;;3.45;2.03;;;;;;;1.49;50.74;100276.53;5098389;28;20256;-41
2023/02/16 11:37:56;;;;;;;3.20;1.80;;;;;;;1.47;50.74;100280.78;5105387;28;20039;-41
2023/02/16 11:40:26;;;;;;;2.80;1.73;;;;;;;1.20;50.63;100248.03;5103790;28;20140;-42
2023/02/16 11:42:57;;;;;;;2.88;1.80;;;;;;;1.53;50.64;100309.88;5100027;27;20055;-43
2023/02/16 11:45:34;;;;;;;6.07;2.60;;;;;;;1.33;50.57;100270.38;5090350;28;20126;-42
2023/02/16 11:48:06;;;;;;;3.53;2.22;;;;;;;1.45;50.30;100303.81;5103796;27;20051;-41
2023/02/16 11:50:39;;;;;;;3.35;1.80;;;;;;;1.44;50.37;100309.78;5114563;27;20047;-45
2023/02/16 11:53:08;;;;;;;8.75;3.70;;;;;;;1.33;50.60;100308.78;5103819;28;20050;-46
2023/02/16 11:55:36;;;;;;;11.43;4.60;;;;;;;1.21;51.10;100301.81;5100888;28;20499;-46
2023/02/16 11:58:16;;;;;;;2.22;1.63;;;;;;;1.03;50.81;100304.13;5100148;28;20051;-41
2023/02/16 12:01:21;;;;;;;8.80;4.30;;;;;;;0.96;50.99;100296.31;5104478;28;20048;-42
2023/02/16 12:04:31;;;;;;;6.32;3.00;;;;;;;0.83;51.03;100303.84;5080372;28;20074;-42
2023/02/16 12:07:15;;;;;;;5.88;2.67;;;;;;;0.83;51.54;100296.19;5098474;28;20059;-43
2023/02/16 12:10:03;;;;;;;8.50;4.10;;;;;;;0.84;51.22;100303.00;5102614;28;20039;-42
2023/02/16 12:12:48;;;;;;;9.13;2.95;;;;;;;0.87;51.46;100302.19;5100153;28;20122;-41
2023/02/16 12:15:14;;;;;;;10.18;4.70;;;;;;;0.88;51.30;100300.50;5103200;28;20036;-43
2023/02/16 12:18:19;;;;;;;9.85;4.68;;;;;;;0.88;51.25;100303.06;5099648;28;20043;-45
2023/02/16 12:20:54;;;;;;;5.50;2.60;;;;;;;0.80;51.70;100310.59;5102103;28;20521;-43
2023/02/16 12:23:40;;;;;;;7.07;3.60;;;;;;;0.78;51.11;100307.19;5103456;28;20031;-45
2023/02/16 12:26:18;;;;;;;7.50;3.88;;;;;;;0.76;51.42;100304.59;5068786;28;20047;-46